Time;durP1;ratioP1;P1;durP2;ratioP2;P2;SDS_P1;SDS_P2;PMS_P1;PMS_P2;Temp;Humidity;BMP_temperature;BMP_pressure;BME280_temperature;BME280_humidity;BME280_pressure;Samples;Min_cycle;Max_cycle;Signal;HPM_P1;HPM_P2
2023/07/20 00:04:04;;;;;;;2.00;1.40;;;;;;;17.29;50.11;98711.67;438061;1253;138799;-74
2023/07/20 00:14:10;;;;;;;2.30;1.30;;;;;;;17.12;50.53;98710.30;438098;1254;138114;-73
2023/07/20 00:24:16;;;;;;;1.80;1.20;;;;;;;17.09;50.70;98711.35;438339;1253;138223;-73
2023/07/20 00:34:22;;;;;;;2.60;1.50;;;;;;;17.15;50.78;98714.84;438334;1253;138349;-73
2023/07/20 00:44:28;;;;;;;3.40;1.40;;;;;;;17.21;50.83;98724.21;438528;1254;138940;-73
2023/07/20 00:54:34;;;;;;;7.00;2.50;;;;;;;17.23;51.00;98736.77;438371;1254;138114;-73
2023/07/20 01:04:40;;;;;;;2.50;1.70;;;;;;;17.24;51.18;98739.86;438573;1254;138115;-73
2023/07/20 01:14:47;;;;;;;1.90;1.70;;;;;;;17.27;51.05;98747.30;437909;1253;138975;-74
2023/07/20 01:25:21;;;;;;;1.40;1.30;;;;;;;17.30;51.05;98755.27;438472;1256;140304;-72
2023/07/20 01:35:31;;;;;;;2.20;1.90;;;;;;;17.32;51.34;98738.44;438762;1254;138401;-74
2023/07/20 01:45:39;;;;;;;2.20;1.20;;;;;;;17.34;51.18;98761.95;439702;1253;138894;-73
2023/07/20 01:55:45;;;;;;;4.60;1.60;;;;;;;17.39;52.44;98781.63;438727;1254;138571;-72
2023/07/20 02:05:51;;;;;;;2.00;1.40;;;;;;;17.38;55.01;98794.05;435958;1254;138800;-73
2023/07/20 02:15:57;;;;;;;4.20;2.00;;;;;;;17.23;57.46;98803.73;438738;1253;138954;-73
2023/07/20 02:26:03;;;;;;;2.30;2.10;;;;;;;16.99;60.18;98821.66;438553;1256;139553;-73
2023/07/20 02:36:08;;;;;;;3.90;1.90;;;;;;;16.72;62.38;98830.65;438299;1253;139579;-72
2023/07/20 02:46:14;;;;;;;6.80;2.90;;;;;;;16.43;64.45;98847.95;438204;1254;139313;-74
2023/07/20 02:56:20;;;;;;;3.40;3.10;;;;;;;16.14;65.80;98858.89;438856;1253;139454;-74
2023/07/20 03:06:27;;;;;;;4.20;2.40;;;;;;;15.94;67.27;98862.73;438789;1252;139955;-74
2023/07/20 03:16:33;;;;;;;4.20;2.50;;;;;;;15.77;68.56;98844.33;438526;1253;140274;-73
2023/07/20 03:26:39;;;;;;;3.30;2.40;;;;;;;15.60;69.24;98849.23;438448;1253;141808;-73
2023/07/20 03:36:44;;;;;;;5.70;3.70;;;;;;;15.47;70.44;98860.74;438533;1255;139461;-74
2023/07/20 03:46:50;;;;;;;4.10;3.20;;;;;;;15.37;71.47;98859.27;438717;1252;138990;-74
2023/07/20 03:56:56;;;;;;;3.80;3.20;;;;;;;15.33;72.21;98853.02;438351;1253;139715;-73
2023/07/20 04:07:02;;;;;;;6.20;2.90;;;;;;;15.36;72.71;98843.22;438444;1253;138879;-74
2023/07/20 04:17:08;;;;;;;6.20;3.70;;;;;;;15.37;73.43;98846.52;438613;1253;139069;-73
2023/07/20 04:27:14;;;;;;;6.50;3.00;;;;;;;15.33;73.46;98844.02;438404;1256;140040;-73
2023/07/20 04:37:20;;;;;;;11.00;3.30;;;;;;;15.24;73.11;98834.14;438428;1254;140517;-73
2023/07/20 04:47:25;;;;;;;3.40;2.60;;;;;;;15.36;73.53;98832.63;438560;1253;138969;-67
2023/07/20 04:57:32;;;;;;;3.80;3.20;;;;;;;15.53;73.09;98835.30;435252;1253;141793;-67
2023/07/20 05:07:38;;;;;;;4.30;3.10;;;;;;;15.79;72.49;98841.47;435403;1256;140114;-69
2023/07/20 05:17:44;;;;;;;4.10;3.00;;;;;;;16.70;72.26;98842.64;435337;1254;139313;-68
2023/07/20 05:27:51;;;;;;;3.00;2.70;;;;;;;18.48;70.53;98853.72;435208;1256;140655;-68
2023/07/20 05:37:56;;;;;;;4.00;2.90;;;;;;;20.95;66.01;98865.21;434897;1253;139951;-69
2023/07/20 05:48:02;;;;;;;10.80;2.90;;;;;;;20.76;63.89;98859.67;435254;1253;139787;-70
2023/07/20 05:58:08;;;;;;;3.80;2.70;;;;;;;20.36;62.59;98861.66;438248;1256;139990;-69
2023/07/20 06:08:14;;;;;;;8.80;2.80;;;;;;;19.51;61.99;98840.90;438220;1256;139378;-71
2023/07/20 06:18:21;;;;;;;2.60;2.20;;;;;;;18.77;62.49;98833.30;438161;1253;139594;-69
2023/07/20 06:28:27;;;;;;;5.60;2.90;;;;;;;18.25;62.75;98835.76;437576;1253;139955;-67
2023/07/20 06:38:33;;;;;;;3.70;3.00;;;;;;;18.28;63.99;98823.77;436147;1254;140709;-67
2023/07/20 06:48:39;;;;;;;3.70;3.40;;;;;;;18.67;63.99;98843.89;435964;1253;140115;-67
2023/07/20 06:58:48;;;;;;;6.00;3.20;;;;;;;18.76;63.76;98864.61;436247;1254;139400;-66
2023/07/20 07:08:54;;;;;;;4.90;3.20;;;;;;;18.64;64.43;98888.56;435834;1254;138943;-70
2023/07/20 07:19:00;;;;;;;6.20;4.20;;;;;;;18.41;65.64;98893.60;435145;1253;141832;-69
2023/07/20 07:29:07;;;;;;;3.30;3.00;;;;;;;18.40;66.19;98886.91;435877;1253;139861;-68
2023/07/20 07:39:13;;;;;;;4.10;3.70;;;;;;;18.57;66.33;98894.78;436722;1253;165723;-72
2023/07/20 07:49:39;;;;;;;4.20;3.00;;;;;;;20.35;65.80;98910.38;438630;1253;139774;-71
2023/07/20 07:59:45;;;;;;;3.60;2.40;;;;;;;26.67;58.71;98913.28;438516;1253;138734;-73
2023/07/20 08:09:51;;;;;;;3.80;3.40;;;;;;;31.37;47.02;98911.86;438726;1254;139539;-75
2023/07/20 08:19:57;;;;;;;8.40;3.90;;;;;;;31.14;42.12;98916.11;438718;1256;138914;-69
2023/07/20 08:30:04;;;;;;;3.30;3.00;;;;;;;30.42;40.62;98915.80;437438;1253;139496;-69
2023/07/20 08:40:09;;;;;;;;;;;;;;;29.90;40.29;98911.32;439359;1254;139054;-70
2023/07/20 08:50:17;;;;;;;2.50;2.30;;;;;;;28.85;39.75;98913.92;438369;1256;124960;-73
2023/07/20 09:00:24;;;;;;;2.10;1.90;;;;;;;28.07;40.48;98910.38;437284;1254;138779;-70
2023/07/20 09:10:28;;;;;;;;;;;;;;;28.20;39.83;98909.81;438691;1253;138804;-70
2023/07/20 09:20:37;;;;;;;6.50;2.30;;;;;;;28.06;40.21;98909.02;438311;1256;124723;-70
2023/07/20 09:30:43;;;;;;;3.00;1.50;;;;;;;27.46;40.96;98909.70;436130;1256;138555;-68
2023/07/20 09:40:58;;;;;;;5.40;1.60;;;;;;;27.86;40.40;98906.27;434962;1254;138768;-67
2023/07/20 09:51:07;;;;;;;1.70;1.50;;;;;;;28.35;39.85;98902.46;435505;1253;138787;-68
2023/07/20 10:01:18;;;;;;;1.70;1.30;;;;;;;28.41;39.12;98900.54;435820;1256;141132;-69
2023/07/20 10:11:30;;;;;;;1.30;1.20;;;;;;;27.04;39.50;98899.70;435423;1254;138238;-69
2023/07/20 10:21:41;;;;;;;2.00;1.70;;;;;;;25.92;40.99;98899.29;435374;1256;138329;-68
2023/07/20 10:31:49;;;;;;;5.80;3.20;;;;;;;26.29;40.78;98883.98;436387;1253;138863;-69
2023/07/20 10:42:08;;;;;;;4.00;1.40;;;;;;;26.18;40.94;98873.78;435585;1253;139484;-69
2023/07/20 10:52:14;;;;;;;5.80;1.50;;;;;;;26.12;41.02;98866.20;435908;1256;138852;-68
2023/07/20 11:02:21;;;;;;;1.60;0.90;;;;;;;26.10;41.50;98859.18;435642;1256;139518;-66
2023/07/20 11:12:27;;;;;;;0.90;0.90;;;;;;;25.49;42.82;98872.32;435412;1254;138806;-69
2023/07/20 11:22:34;;;;;;;4.80;1.80;;;;;;;25.10;45.37;98871.10;438611;1254;139432;-69
2023/07/20 11:32:49;;;;;;;4.90;1.80;;;;;;;24.91;45.94;98875.21;437749;1256;140399;-76
2023/07/20 11:42:57;;;;;;;2.80;2.30;;;;;;;23.54;48.29;98900.70;438409;1253;140153;-78
2023/07/20 11:53:05;;;;;;;4.20;2.70;;;;;;;22.17;51.86;98911.85;438413;1256;139616;-68
2023/07/20 12:03:13;;;;;;;2.30;1.20;;;;;;;20.78;54.74;98919.66;438289;1254;138599;-67
2023/07/20 12:13:19;;;;;;;0.50;0.50;;;;;;;21.08;55.64;98913.95;438200;1256;138965;-71
2023/07/20 12:23:25;;;;;;;1.60;0.90;;;;;;;21.76;53.57;98907.14;438436;1253;139305;-71
2023/07/20 12:33:31;;;;;;;1.40;0.70;;;;;;;21.75;53.54;98909.14;438447;1256;138741;-70
2023/07/20 12:43:38;;;;;;;2.00;1.10;;;;;;;21.76;53.06;98914.36;438516;1256;138858;-71
2023/07/20 12:53:45;;;;;;;3.20;0.80;;;;;;;22.03;53.29;98911.28;438600;1254;140681;-79
2023/07/20 13:03:50;;;;;;;4.10;0.70;;;;;;;22.01;52.74;98931.06;438701;1256;139260;-68
2023/07/20 13:13:59;;;;;;;1.30;0.80;;;;;;;20.40;50.32;98959.94;435218;1256;140468;-68
2023/07/20 13:24:06;;;;;;;1.60;0.70;;;;;;;19.32;51.75;98930.13;435119;1256;139805;-67
2023/07/20 13:34:12;;;;;;;1.50;1.10;;;;;;;19.48;55.04;98934.40;435592;1255;139586;-70
2023/07/20 13:44:20;;;;;;;1.40;0.40;;;;;;;20.35;54.37;98946.84;435438;1256;139631;-69
2023/07/20 13:54:28;;;;;;;2.60;2.40;;;;;;;20.64;53.23;98954.05;435427;1255;138707;-69
2023/07/20 14:04:34;;;;;;;0.60;0.60;;;;;;;20.58;53.10;98975.17;435379;1256;141516;-71
2023/07/20 14:14:40;;;;;;;1.20;1.20;;;;;;;21.29;51.94;98957.95;435725;1256;139683;-68
2023/07/20 14:24:46;;;;;;;0.70;0.50;;;;;;;21.25;51.34;98949.20;435387;1257;138775;-67
2023/07/20 14:34:52;;;;;;;1.10;0.60;;;;;;;20.77;51.12;98937.95;435156;1257;139691;-68
2023/07/20 14:44:59;;;;;;;0.80;0.40;;;;;;;20.54;51.56;98930.77;435640;1256;139194;-67
2023/07/20 14:55:06;;;;;;;1.10;0.50;;;;;;;20.46;51.06;98915.70;436097;1256;138940;-66
2023/07/20 15:05:21;;;;;;;0.40;0.40;;;;;;;20.51;50.34;98909.80;436445;1254;138769;-72
2023/07/20 15:15:27;;;;;;;0.80;0.60;;;;;;;20.63;49.56;98905.27;436123;1256;139295;-68
2023/07/20 15:25:32;;;;;;;0.40;0.40;;;;;;;20.67;48.98;98905.45;435678;1257;139670;-67
2023/07/20 15:35:39;;;;;;;0.60;0.40;;;;;;;20.61;48.53;98904.94;435546;1256;140215;-66
2023/07/20 15:45:49;;;;;;;1.00;0.60;;;;;;;20.80;48.47;98913.82;435699;1257;139702;-74
2023/07/20 15:55:57;;;;;;;0.80;0.60;;;;;;;21.58;48.25;98917.38;436651;1254;138535;-69
2023/07/20 16:06:04;;;;;;;0.80;0.80;;;;;;;21.53;48.26;98918.64;435448;1254;138544;-68
2023/07/20 16:16:11;;;;;;;1.50;0.50;;;;;;;21.30;48.96;98918.21;435835;1257;139303;-69
2023/07/20 16:26:19;;;;;;;0.40;0.40;;;;;;;21.25;49.22;98930.55;436124;1256;139610;-69
2023/07/20 16:36:25;;;;;;;2.50;0.60;;;;;;;21.12;49.69;98949.84;435911;1255;139159;-68
2023/07/20 16:46:33;;;;;;;5.00;1.60;;;;;;;20.68;49.71;98966.45;435976;1256;138073;-69
2023/07/20 16:56:41;;;;;;;1.00;0.60;;;;;;;19.88;50.19;98967.60;436170;1255;138354;-69
2023/07/20 17:06:48;;;;;;;1.60;0.70;;;;;;;19.38;51.30;98981.09;435610;1256;138129;-68
2023/07/20 17:16:56;;;;;;;2.20;0.60;;;;;;;19.19;51.25;98983.90;435756;1257;138974;-69
2023/07/20 17:27:02;;;;;;;3.00;1.00;;;;;;;19.17;51.57;99003.96;435367;1257;138509;-69
2023/07/20 17:37:28;;;;;;;1.50;0.60;;;;;;;19.20;52.27;98999.41;434574;1260;138772;-68
2023/07/20 17:47:54;;;;;;;0.80;0.70;;;;;;;18.83;53.17;99002.80;434782;1255;138321;-70
2023/07/20 17:58:02;;;;;;;0.90;0.70;;;;;;;18.44;54.29;99014.20;435716;1254;139052;-69
2023/07/20 18:08:08;;;;;;;1.10;0.80;;;;;;;18.15;54.88;99016.89;435117;1254;138583;-68
2023/07/20 18:18:15;;;;;;;1.10;0.80;;;;;;;17.88;55.65;99026.33;435538;1254;138278;-69
2023/07/20 18:28:23;;;;;;;2.40;1.10;;;;;;;17.78;56.47;99020.88;435458;1254;139358;-69
2023/07/20 18:38:31;;;;;;;1.90;1.40;;;;;;;17.59;57.18;99033.65;435883;1254;138203;-68
2023/07/20 18:48:37;;;;;;;3.40;1.60;;;;;;;17.20;58.07;99031.66;435614;1254;138217;-67
2023/07/20 18:58:51;;;;;;;1.50;1.20;;;;;;;16.79;59.83;99043.64;435576;1255;138775;-67
2023/07/20 19:08:57;;;;;;;6.30;4.90;;;;;;;16.44;61.31;99058.53;435712;1256;139897;-67
2023/07/20 19:19:05;;;;;;;3.80;1.60;;;;;;;16.11;62.75;99069.23;435296;1253;139531;-67
2023/07/20 19:29:11;;;;;;;5.80;2.10;;;;;;;15.79;63.67;99072.46;435684;1254;139287;-66
2023/07/20 19:39:18;;;;;;;5.90;2.60;;;;;;;15.52;64.93;99078.31;435915;1254;141795;-65
2023/07/20 19:49:24;;;;;;;7.10;2.30;;;;;;;15.32;65.95;99088.40;435393;1253;140164;-62
2023/07/20 19:59:34;;;;;;;7.40;2.30;;;;;;;15.12;67.04;99103.80;435652;1257;138912;-66
2023/07/20 20:09:41;;;;;;;7.10;5.10;;;;;;;15.03;68.02;99105.63;435582;1254;139655;-66
2023/07/20 20:19:49;;;;;;;5.20;3.80;;;;;;;15.07;68.56;99107.56;435858;1255;139316;-67
2023/07/20 20:29:56;;;;;;;5.30;3.30;;;;;;;14.93;69.36;99112.48;436144;1254;138883;-68
2023/07/20 20:40:04;;;;;;;6.80;4.20;;;;;;;14.90;70.04;99110.86;435700;1256;142079;-68
2023/07/20 20:50:10;;;;;;;;;;;;;;;15.07;70.39;99111.83;435982;1254;139506;-67
2023/07/20 21:00:18;;;;;;;10.50;7.70;;;;;;;15.29;70.79;99109.67;435717;1256;125974;-68
2023/07/20 21:10:23;;;;;;;11.40;7.50;;;;;;;15.47;70.79;99114.36;435970;1254;139420;-68
2023/07/20 21:20:30;;;;;;;6.40;4.30;;;;;;;15.57;71.10;99116.23;436124;1253;139656;-69
2023/07/20 21:30:37;;;;;;;18.40;12.00;;;;;;;15.60;70.90;99110.55;436015;1256;139708;-67
2023/07/20 21:40:43;;;;;;;11.10;7.30;;;;;;;15.50;70.95;99116.89;436282;1254;141812;-67
2023/07/20 21:50:54;;;;;;;8.40;4.90;;;;;;;15.38;71.48;99117.45;436032;1256;139948;-69
2023/07/20 22:01:03;;;;;;;6.20;5.20;;;;;;;15.37;72.19;99123.60;435741;1253;139558;-68
2023/07/20 22:11:30;;;;;;;2.80;2.10;;;;;;;15.39;71.90;99135.40;437016;1254;139400;-68
2023/07/20 22:21:39;;;;;;;3.30;2.80;;;;;;;15.37;71.34;99148.36;435564;1256;138960;-69
2023/07/20 22:31:45;;;;;;;4.50;2.40;;;;;;;15.33;70.86;99149.13;435790;1256;138990;-68
2023/07/20 22:41:51;;;;;;;3.80;2.20;;;;;;;15.27;70.99;99150.70;436180;1253;138967;-69
2023/07/20 22:51:58;;;;;;;2.80;2.50;;;;;;;15.18;71.45;99145.34;435952;1253;139286;-69
2023/07/20 23:02:06;;;;;;;2.60;2.20;;;;;;;15.09;71.82;99152.88;435827;1253;139473;-68
2023/07/20 23:12:12;;;;;;;3.70;2.70;;;;;;;15.03;72.37;99156.35;435952;1256;139963;-67
2023/07/20 23:22:18;;;;;;;4.70;3.60;;;;;;;15.03;72.73;99153.38;436370;1253;139026;-67
2023/07/20 23:32:24;;;;;;;3.70;2.60;;;;;;;14.96;73.10;99142.58;436219;1254;140294;-67
2023/07/20 23:42:30;;;;;;;2.90;2.70;;;;;;;14.73;73.79;99135.91;435717;1256;140091;-67
2023/07/20 23:52:36;;;;;;;3.40;2.70;;;;;;;14.43;74.65;99145.77;435642;1253;139601;-68
